createdAt,value
2019-03-21T15:22:30.884Z,19.59
2019-03-21T15:23:36.074Z,20.33
2019-03-21T15:24:28.942Z,19.92
2019-03-21T15:25:27.955Z,19.31
2019-03-21T15:26:27.896Z,19.76
2019-03-21T15:27:27.797Z,19.87
2019-03-21T15:28:27.806Z,19.76
2019-03-21T15:29:27.772Z,19.88
2019-03-21T15:30:27.761Z,19.62
2019-03-21T15:31:27.809Z,19.80
2019-03-21T15:32:27.751Z,20.50
2019-03-21T15:33:27.742Z,20.97
2019-03-21T15:34:27.769Z,21.29
2019-03-21T15:35:27.730Z,20.92
2019-03-21T15:36:56.207Z,20.36
2019-03-21T15:37:27.689Z,20.35
2019-03-21T15:38:27.973Z,19.65
2019-03-21T15:39:27.668Z,19.62
2019-03-21T15:40:27.692Z,19.41
2019-03-21T15:41:35.265Z,19.26
2019-03-21T15:42:27.632Z,19.59
2019-03-21T15:43:27.621Z,19.91
2019-03-21T15:44:27.609Z,19.83
2019-03-21T15:45:27.604Z,19.84
2019-03-21T15:46:38.243Z,20.01
2019-03-21T15:47:27.614Z,20.29
2019-03-21T15:48:27.576Z,20.28
2019-03-21T15:49:27.558Z,20.16
2019-03-21T15:50:27.545Z,20.66
2019-03-21T15:51:37.204Z,20.95
2019-03-21T15:52:27.536Z,20.54
2019-03-21T15:53:27.512Z,20.35
2019-03-21T15:54:27.523Z,20.64
2019-03-21T15:55:27.486Z,20.36
2019-03-21T15:56:32.717Z,19.95
2019-03-21T15:57:27.490Z,20.13
2019-03-21T15:58:27.482Z,19.33
2019-03-21T15:59:27.442Z,17.97
2019-03-21T16:00:27.436Z,17.70
2019-03-21T16:01:27.553Z,17.93
2019-03-21T16:02:27.418Z,18.07
2019-03-21T16:03:27.400Z,18.14
2019-03-21T16:04:27.394Z,18.33
2019-03-21T16:05:27.418Z,18.54
2019-03-21T16:06:27.372Z,18.78
2019-03-21T16:12:34.198Z,19.74
2019-03-21T16:13:32.063Z,19.76
2019-03-21T16:14:32.087Z,19.63
2019-03-21T16:15:32.019Z,19.74
2019-03-21T16:16:32.013Z,19.10
2019-03-21T16:17:32.010Z,18.67
2019-03-21T16:20:36.260Z,18.81
2019-03-21T16:21:36.273Z,18.51
2019-03-21T16:22:36.229Z,18.08
2019-03-21T16:24:09.698Z,17.96
2019-03-21T16:24:36.227Z,18.33
2019-03-21T16:25:36.279Z,18.50
2019-03-21T16:26:36.959Z,18.65
2019-03-21T16:27:36.153Z,18.90
2019-03-21T16:28:47.042Z,18.45
2019-03-21T16:29:36.125Z,18.57
2019-03-21T16:30:36.114Z,18.33
2019-03-21T16:31:36.151Z,18.03
2019-03-21T16:32:36.097Z,17.95
2019-03-21T16:33:50.478Z,17.90
2019-03-21T16:34:36.078Z,18.10
2019-03-21T16:35:36.064Z,17.75
2019-03-21T16:36:36.076Z,17.63
2019-03-21T16:37:36.048Z,17.33
2019-03-21T16:41:52.995Z,16.97
2019-03-21T16:42:52.987Z,16.50
2019-03-21T16:43:52.999Z,16.48
2019-03-21T16:44:52.955Z,16.64
2019-03-21T16:45:52.949Z,16.46
2019-03-21T16:46:52.965Z,16.25
2019-03-21T16:47:52.938Z,16.17
2019-03-21T16:48:52.937Z,16.08
2019-03-21T16:50:07.678Z,15.94
2019-03-21T16:50:52.878Z,15.78
2019-03-21T16:51:52.832Z,15.54
2019-03-21T16:52:52.821Z,15.53
2019-03-21T16:53:52.871Z,15.50
2019-03-21T16:54:59.692Z,15.43
2019-03-21T16:55:52.793Z,15.69
2019-03-21T16:56:52.779Z,16.05
2019-03-21T16:57:52.762Z,16.07
2019-03-21T16:58:52.798Z,16.31
2019-03-21T17:00:12.686Z,16.48
2019-03-21T17:00:52.736Z,16.53
2019-03-21T17:01:52.732Z,16.75
2019-03-21T17:02:52.708Z,16.85
2019-03-21T17:03:52.722Z,16.97
2019-03-21T17:04:52.685Z,16.96
2019-03-21T17:06:11.686Z,17.00
2019-03-21T17:06:52.662Z,16.96
2019-03-21T17:07:52.656Z,16.94
2019-03-21T17:08:52.647Z,16.93
2019-03-21T17:09:52.641Z,16.88
2019-03-21T17:10:57.217Z,16.70
2019-03-21T17:11:52.626Z,16.75
2019-03-21T17:12:52.596Z,16.75
2019-03-21T17:13:52.609Z,16.60
2019-03-21T17:14:52.660Z,16.30
2019-03-21T17:16:07.186Z,16.27
2019-03-21T17:16:52.548Z,16.25
2019-03-21T17:17:52.552Z,16.02
2019-03-21T17:18:52.527Z,16.02
2019-03-21T17:19:52.533Z,15.86
2019-03-21T17:20:59.191Z,15.84
2019-03-21T17:21:52.496Z,15.78
2019-03-21T17:22:52.481Z,15.67
2019-03-21T17:23:52.519Z,15.54
2019-03-21T17:24:52.460Z,15.34
2019-03-21T17:25:52.507Z,15.17
2019-03-21T17:26:55.648Z,15.16
2019-03-21T17:27:54.637Z,15.09
2019-03-21T17:28:52.414Z,15.09
2019-03-21T17:29:52.407Z,14.99
2019-03-21T17:30:52.425Z,14.88
2019-03-21T17:32:00.687Z,14.80
2019-03-21T17:32:52.371Z,14.72
2019-03-21T17:33:52.381Z,14.68
2019-03-21T17:34:52.347Z,14.58
2019-03-21T17:35:52.364Z,14.51
2019-03-21T17:37:27.663Z,14.35
2019-03-21T17:37:52.322Z,14.29
2019-03-21T17:38:52.301Z,14.28
2019-03-21T17:39:52.288Z,14.25
2019-03-21T17:40:52.293Z,14.12
2019-03-21T17:41:54.192Z,14.06
2019-03-21T17:42:52.258Z,14.10
2019-03-21T17:43:52.252Z,14.03
2019-03-21T17:44:52.238Z,14.03
2019-03-21T17:45:52.232Z,14.03
2019-03-21T17:46:55.726Z,13.95
2019-03-21T17:47:52.205Z,13.89
2019-03-21T17:48:52.262Z,13.97
2019-03-21T17:49:52.177Z,13.81
2019-03-21T17:50:52.172Z,13.78
2019-03-21T17:51:52.193Z,13.73
2019-03-21T17:52:52.163Z,13.78
2019-03-21T17:53:52.135Z,13.66
2019-03-21T17:54:52.137Z,13.60
2019-03-21T17:55:52.115Z,13.63
2019-03-21T17:56:52.153Z,13.52
2019-03-21T17:57:52.104Z,13.57
2019-03-21T17:58:52.089Z,13.51
2019-03-21T17:59:52.068Z,13.44
2019-03-21T18:00:52.094Z,13.42
2019-03-21T18:01:55.159Z,13.29
2019-03-21T18:02:52.038Z,13.33
2019-03-21T18:03:52.047Z,13.33
2019-03-21T18:04:52.010Z,13.25
2019-03-21T18:05:52.018Z,13.26
2019-03-21T18:06:52.027Z,13.12
2019-03-21T18:07:51.986Z,13.12
2019-03-21T18:08:51.965Z,13.07
2019-03-21T18:09:51.957Z,13.11
2019-03-21T18:10:51.943Z,12.97
2019-03-21T18:11:51.977Z,13.01
2019-03-21T18:15:26.545Z,12.93
2019-03-21T18:16:26.129Z,12.95
2019-03-21T18:17:26.247Z,12.93
2019-03-21T18:18:26.153Z,12.93
2019-03-21T18:19:26.258Z,12.92
2019-03-21T18:20:26.067Z,12.86
2019-03-21T18:21:26.075Z,12.77
2019-03-21T18:22:26.082Z,12.77
2019-03-21T18:23:26.029Z,12.65
2019-03-21T18:24:26.036Z,12.68
2019-03-21T18:25:26.056Z,12.56
2019-03-21T18:26:25.991Z,12.56
2019-03-21T18:27:26.013Z,12.62
2019-03-21T18:28:26.022Z,12.50
2019-03-21T18:29:25.949Z,12.47
2019-03-21T18:30:25.987Z,12.45
2019-03-21T18:31:25.938Z,12.47
2019-03-21T18:32:25.957Z,12.28
2019-03-21T18:33:26.020Z,12.31
2019-03-21T18:34:25.910Z,12.19
2019-03-21T18:35:25.885Z,12.12
2019-03-21T18:36:25.927Z,12.10
2019-03-21T18:37:25.914Z,11.99
2019-03-21T18:38:25.900Z,11.96
2019-03-21T18:39:25.882Z,11.88
2019-03-21T18:40:25.867Z,11.95
2019-03-21T18:41:25.819Z,11.91
2019-03-21T18:42:25.909Z,11.83
2019-03-21T18:43:25.800Z,11.69
2019-03-21T18:44:25.793Z,11.61
2019-03-21T18:45:25.779Z,11.62
2019-03-21T18:46:25.765Z,11.69
2019-03-21T18:47:25.798Z,11.73
2019-03-21T18:48:25.790Z,11.67
2019-03-21T18:49:25.732Z,11.79
2019-03-21T18:50:25.725Z,11.78
2019-03-21T18:51:25.715Z,11.85
2019-03-21T18:52:25.736Z,11.79
2019-03-21T18:53:25.690Z,11.69
2019-03-21T18:54:25.682Z,11.78
2019-03-21T18:55:25.695Z,11.69
2019-03-21T18:56:25.659Z,11.73
2019-03-21T18:57:25.730Z,11.73
2019-03-21T18:58:25.667Z,11.70
2019-03-21T18:59:25.637Z,11.67
2019-03-21T19:00:25.614Z,11.65
2019-03-21T19:01:25.597Z,11.62
2019-03-21T19:02:25.623Z,11.64
2019-03-21T19:03:25.638Z,11.54
2019-03-21T19:04:25.576Z,11.55
2019-03-21T19:05:25.559Z,11.46
2019-03-21T19:06:25.542Z,11.47
2019-03-21T19:07:25.580Z,11.36
2019-03-21T19:08:25.519Z,11.35
2019-03-21T19:09:25.540Z,11.22
2019-03-21T19:10:25.509Z,11.11
2019-03-21T19:11:25.493Z,11.00
2019-03-21T19:12:25.518Z,10.91
2019-03-21T19:13:25.459Z,10.82
2019-03-21T19:14:25.477Z,10.91
2019-03-21T19:15:25.443Z,10.96
2019-03-21T19:16:25.501Z,10.97
2019-03-21T19:17:25.463Z,11.03
2019-03-21T19:18:25.412Z,10.97
2019-03-21T19:19:25.401Z,10.88
2019-03-21T19:20:25.384Z,10.86
2019-03-21T19:21:25.383Z,10.86
2019-03-21T19:22:25.470Z,10.76
2019-03-21T19:23:25.357Z,10.67
2019-03-21T19:24:25.337Z,10.74
2019-03-21T19:25:25.323Z,10.68
2019-03-21T19:26:25.326Z,10.67
2019-03-21T19:27:25.345Z,10.60
2019-03-21T19:28:25.291Z,10.63
2019-03-21T19:29:25.297Z,10.64
2019-03-21T19:30:25.282Z,10.61
2019-03-21T19:31:25.288Z,10.71
2019-03-21T19:32:25.284Z,10.63
2019-03-21T19:33:25.234Z,10.63
2019-03-21T19:34:25.231Z,10.67
2019-03-21T19:35:25.262Z,10.67
2019-03-21T19:36:25.202Z,10.61
2019-03-21T19:37:25.236Z,10.70
2019-03-21T19:38:25.183Z,10.67
2019-03-21T19:39:25.170Z,10.61
2019-03-21T19:40:25.173Z,10.60
2019-03-21T19:41:25.154Z,10.61
2019-03-21T19:42:25.173Z,10.60
2019-03-21T19:43:25.129Z,10.59
2019-03-21T19:44:25.108Z,10.53
2019-03-21T19:45:25.108Z,10.53
2019-03-21T19:46:25.132Z,10.64
2019-03-21T19:47:30.218Z,10.60
2019-03-21T19:48:26.073Z,10.61
2019-03-21T19:49:25.062Z,10.64
2019-03-21T19:50:25.063Z,10.51
2019-03-21T19:51:25.080Z,10.44
2019-03-21T19:52:25.065Z,10.34
2019-03-21T19:53:25.018Z,10.38
2019-03-21T19:54:25.054Z,10.33
2019-03-21T19:55:30.800Z,10.36
2019-03-21T19:56:25.985Z,10.30
2019-03-21T19:57:25.002Z,10.30
2019-03-21T19:58:24.962Z,10.25
2019-03-21T19:59:24.940Z,10.14
2019-03-21T20:00:24.983Z,10.14
2019-03-21T20:01:24.929Z,10.17
2019-03-21T20:02:24.927Z,10.05
2019-03-21T20:03:25.040Z,9.96
2019-03-21T20:04:24.903Z,9.72
2019-03-21T20:05:24.876Z,9.64
2019-03-21T20:06:24.911Z,9.43
2019-03-21T20:07:24.897Z,9.50
2019-03-21T20:08:24.921Z,9.61
2019-03-21T20:09:24.842Z,9.51
2019-03-21T20:10:24.823Z,9.61
2019-03-21T20:11:24.807Z,9.65
2019-03-21T20:12:24.795Z,9.64
2019-03-21T20:13:24.833Z,9.64
2019-03-21T20:14:24.846Z,9.61
2019-03-21T20:15:24.776Z,9.75
2019-03-21T20:16:24.758Z,9.74
2019-03-21T20:17:24.743Z,9.76
2019-03-21T20:18:24.775Z,9.76
2019-03-21T20:19:24.721Z,9.74
2019-03-21T20:20:24.710Z,9.66
2019-03-21T20:21:24.746Z,9.54
2019-03-21T20:22:24.693Z,9.48
2019-03-21T20:23:24.721Z,9.65
2019-03-21T20:24:24.667Z,9.51
2019-03-21T20:25:24.656Z,9.53
2019-03-21T20:26:24.649Z,9.65
2019-03-21T20:27:24.641Z,9.61
2019-03-21T20:28:24.689Z,9.65
2019-03-21T20:29:24.613Z,9.61
2019-03-21T20:30:24.599Z,9.57
2019-03-21T20:31:24.585Z,9.64
2019-03-21T20:32:24.576Z,9.60
2019-03-21T20:33:24.613Z,9.66
2019-03-21T20:34:24.571Z,9.66
2019-03-21T20:35:24.557Z,9.58
2019-03-21T20:36:24.583Z,9.57
2019-03-21T20:37:24.521Z,9.48
2019-03-21T20:38:24.587Z,9.58
2019-03-21T20:39:24.506Z,9.43
2019-03-21T20:40:24.495Z,9.39
2019-03-21T20:41:24.485Z,9.31
2019-03-21T20:42:24.535Z,9.29
2019-03-21T20:43:24.503Z,9.33
2019-03-21T20:44:24.449Z,9.31
2019-03-21T20:45:24.437Z,9.31
2019-03-21T20:46:24.421Z,9.26
2019-03-21T20:47:24.416Z,9.21
2019-03-21T20:48:24.475Z,9.18
2019-03-21T20:49:24.406Z,9.10
2019-03-21T20:50:24.424Z,9.02
2019-03-21T20:51:24.378Z,9.01
2019-03-21T20:52:24.367Z,9.08
2019-03-21T20:53:24.406Z,9.11
2019-03-21T20:54:24.353Z,9.01
2019-03-21T20:55:24.385Z,9.11
2019-03-21T20:56:24.365Z,9.13
2019-03-21T20:57:24.306Z,9.13
2019-03-21T20:58:24.346Z,9.13
2019-03-21T20:59:24.280Z,9.11
2019-03-21T21:00:24.278Z,9.13
2019-03-21T21:01:24.272Z,9.08
2019-03-21T21:02:24.265Z,9.01
2019-03-21T21:03:24.326Z,9.05
2019-03-21T21:04:24.227Z,9.01
2019-03-21T21:05:24.219Z,9.05
2019-03-21T21:06:24.214Z,8.96
2019-03-21T21:07:24.212Z,9.04
2019-03-21T21:08:24.237Z,8.92
2019-03-21T21:09:24.182Z,9.01
2019-03-21T21:10:24.232Z,8.99
2019-03-21T21:11:24.164Z,9.11
2019-03-21T21:12:24.149Z,9.02
2019-03-21T21:13:24.174Z,9.08
2019-03-21T21:14:24.145Z,9.08
2019-03-21T21:15:24.135Z,9.11
2019-03-21T21:16:24.107Z,9.05
2019-03-21T21:17:24.088Z,9.02
2019-03-21T21:18:24.124Z,8.99
2019-03-21T21:19:24.068Z,8.83
2019-03-21T21:20:24.107Z,8.84
2019-03-21T21:21:24.045Z,8.81
2019-03-21T21:22:24.045Z,8.83
2019-03-21T21:23:24.072Z,8.87
2019-03-21T21:24:24.023Z,8.86
2019-03-21T21:25:24.002Z,8.96
2019-03-21T21:26:24.022Z,8.86
2019-03-21T21:27:23.987Z,8.92
2019-03-21T21:28:24.756Z,8.89
2019-03-21T21:29:23.969Z,8.74
2019-03-21T21:30:23.947Z,8.87
2019-03-21T21:31:23.943Z,8.83
2019-03-21T21:32:24.045Z,8.89
2019-03-21T21:33:23.985Z,8.96
2019-03-21T21:34:23.918Z,8.83
2019-03-21T21:35:23.893Z,8.86
2019-03-21T21:36:23.884Z,8.86
2019-03-21T21:37:23.869Z,8.87
2019-03-21T21:38:23.853Z,8.84
2019-03-21T21:39:23.883Z,8.91
2019-03-21T21:40:23.877Z,8.76
2019-03-21T21:41:23.825Z,8.87
2019-03-21T21:42:23.811Z,8.79
2019-03-21T21:43:23.800Z,8.80
2019-03-21T21:44:23.825Z,8.83
2019-03-21T21:45:23.786Z,8.87
2019-03-21T21:46:23.823Z,8.76
2019-03-21T21:47:23.792Z,8.76
2019-03-21T21:48:23.753Z,8.73
2019-03-21T21:49:23.782Z,8.68
2019-03-21T21:50:23.725Z,8.71
2019-03-21T21:51:23.719Z,8.65
2019-03-21T21:52:23.708Z,8.73
2019-03-21T21:53:23.726Z,8.73
2019-03-21T21:54:23.721Z,8.71
2019-03-21T21:55:23.675Z,8.71
2019-03-21T21:56:23.660Z,8.80
2019-03-21T21:57:23.661Z,8.84
2019-03-21T21:58:23.636Z,8.71
2019-03-21T21:59:23.676Z,8.71
2019-03-21T22:00:23.651Z,8.68
2019-03-21T22:01:23.607Z,8.62
2019-03-21T22:02:23.600Z,8.63
2019-03-21T22:03:23.584Z,8.56
2019-03-21T22:04:23.614Z,8.59
2019-03-21T22:05:23.568Z,8.61
2019-03-21T22:06:23.607Z,8.52
2019-03-21T22:07:23.545Z,8.61
2019-03-21T22:08:23.578Z,8.53
2019-03-21T22:09:23.552Z,8.56
2019-03-21T22:10:23.508Z,8.52
2019-03-21T22:11:23.497Z,8.43
2019-03-21T22:12:23.502Z,8.41
2019-03-21T22:13:23.477Z,8.48
2019-03-21T22:14:23.505Z,8.47
2019-03-21T22:15:23.477Z,8.41
2019-03-21T22:16:23.445Z,8.41
2019-03-21T22:17:23.441Z,8.38
2019-03-21T22:18:23.423Z,8.43
2019-03-21T22:19:23.455Z,8.43
2019-03-21T22:20:23.404Z,8.45
2019-03-21T22:21:23.432Z,8.47
2019-03-21T22:22:23.379Z,8.45
2019-03-21T22:23:23.374Z,8.41
2019-03-21T22:24:23.415Z,8.48
2019-03-21T22:25:23.378Z,8.43
2019-03-21T22:26:29.506Z,8.44
2019-03-21T22:27:23.326Z,8.45
2019-03-21T22:28:23.310Z,8.38
2019-03-21T22:29:23.331Z,8.45
2019-03-21T22:30:23.347Z,8.41
2019-03-21T22:31:23.283Z,8.45
2019-03-21T22:32:23.273Z,8.33
2019-03-21T22:33:23.313Z,8.29
2019-03-21T22:34:23.295Z,8.33
2019-03-21T22:35:23.230Z,8.47
2019-03-21T22:36:23.239Z,8.41
2019-03-21T22:37:23.217Z,8.29
2019-03-21T22:38:23.193Z,8.29
2019-03-21T22:39:23.304Z,8.28
2019-03-21T22:40:23.182Z,8.38
2019-03-21T22:41:23.166Z,8.37
2019-03-21T22:42:23.167Z,8.28
2019-03-21T22:43:23.150Z,8.30
2019-03-21T22:44:23.180Z,8.29
2019-03-21T22:45:23.132Z,8.30
2019-03-21T22:46:23.114Z,8.29
2019-03-21T22:47:23.108Z,8.23
2019-03-21T22:48:23.090Z,8.25
2019-03-21T22:49:23.109Z,8.18
2019-03-21T22:50:23.116Z,8.28
2019-03-21T22:51:23.055Z,8.23
2019-03-21T22:52:23.048Z,8.18
2019-03-21T22:53:23.031Z,8.29
2019-03-21T22:54:23.094Z,8.20
2019-03-21T22:55:23.009Z,8.18
2019-03-21T22:56:23.028Z,8.23
2019-03-21T22:57:23.068Z,8.15
2019-03-21T22:58:31.419Z,8.26
2019-03-21T22:59:24.006Z,8.20
2019-03-21T23:00:22.954Z,8.20
2019-03-21T23:01:22.938Z,8.23
2019-03-21T23:02:22.934Z,8.22
2019-03-21T23:03:22.956Z,8.19
2019-03-21T23:04:22.954Z,8.18
2019-03-21T23:05:22.909Z,8.20
2019-03-21T23:06:22.886Z,8.16
2019-03-21T23:07:22.878Z,8.19
2019-03-21T23:08:22.868Z,8.07
2019-03-21T23:09:22.886Z,8.15
2019-03-21T23:10:22.892Z,8.07
2019-03-21T23:11:22.826Z,8.11
2019-03-21T23:12:22.834Z,8.15
2019-03-21T23:13:22.808Z,8.18
2019-03-21T23:14:22.810Z,8.10
2019-03-21T23:15:22.834Z,8.12
2019-03-21T23:16:22.851Z,8.15
2019-03-21T23:17:22.767Z,8.15
2019-03-21T23:18:22.762Z,8.00
2019-03-21T23:19:22.787Z,8.04
2019-03-21T23:20:22.730Z,8.12
2019-03-21T23:21:22.723Z,8.10
2019-03-21T23:22:22.715Z,8.10
2019-03-21T23:23:22.762Z,8.10
2019-03-21T23:24:22.690Z,8.11
2019-03-21T23:25:22.719Z,8.08
2019-03-21T23:26:22.671Z,8.12
2019-03-21T23:27:22.654Z,8.07
2019-03-21T23:28:22.646Z,8.11
2019-03-21T23:29:22.687Z,8.16
2019-03-21T23:30:22.675Z,8.15
2019-03-21T23:31:22.609Z,8.12
2019-03-21T23:32:22.597Z,8.12
2019-03-21T23:33:22.601Z,8.08
2019-03-21T23:34:22.578Z,8.00
2019-03-21T23:35:22.623Z,8.04
2019-03-21T23:36:22.565Z,8.04
2019-03-21T23:37:22.574Z,8.02
2019-03-21T23:38:22.541Z,7.95
2019-03-21T23:39:22.516Z,7.97
2019-03-21T23:40:22.510Z,8.00
2019-03-21T23:41:22.539Z,8.02
2019-03-21T23:42:22.497Z,8.02
2019-03-21T23:43:22.470Z,8.04
2019-03-21T23:44:22.474Z,8.00
2019-03-21T23:45:22.509Z,8.10
2019-03-21T23:46:22.496Z,7.93
2019-03-21T23:47:22.434Z,8.07
2019-03-21T23:48:22.427Z,8.02
2019-03-21T23:49:22.449Z,8.08
2019-03-21T23:50:22.407Z,8.04
2019-03-21T23:51:22.426Z,8.02
2019-03-21T23:52:22.432Z,7.95
2019-03-21T23:53:22.366Z,7.95
2019-03-21T23:54:22.371Z,8.01
2019-03-21T23:55:22.347Z,7.98
2019-03-21T23:56:22.369Z,7.92
2019-03-21T23:57:22.315Z,8.00
2019-03-21T23:58:22.347Z,7.95
2019-03-21T23:59:22.307Z,7.93
